Time;durP1;ratioP1;P1;durP2;ratioP2;P2;SDS_P1;SDS_P2;PMS_P1;PMS_P2;Temp;Humidity;BMP_temperature;BMP_pressure;BME280_temperature;BME280_humidity;BME280_pressure;Samples;Min_cycle;Max_cycle;Signal;HPM_P1;HPM_P2
2022/04/13 00:01:41;;;;;;;4.40;1.95;;;;;;;;;;5093811;28;20020;-77
2022/04/13 00:04:07;;;;;;;4.72;2.28;;;;;;;;;;5076017;28;20461;-78
2022/04/13 00:06:38;;;;;;;5.45;2.50;;;;;;;;;;5093890;28;20449;-78
2022/04/13 00:09:06;;;;;;;3.22;2.33;;;;;;;;;;5076032;28;20032;-79
2022/04/13 00:11:32;;;;;;;3.33;2.40;;;;;;;;;;5093868;28;20028;-79
2022/04/13 00:13:57;;;;;;;6.28;2.70;;;;;;;;;;5078452;28;20114;-78
2022/04/13 00:16:23;;;;;;;3.17;2.70;;;;;;;;;;5097429;28;20024;-77
2022/04/13 00:18:48;;;;;;;6.22;2.50;;;;;;;;;;5097574;28;20120;-78
2022/04/13 00:21:14;;;;;;;5.65;2.72;;;;;;;;;;5097790;28;20032;-78
2022/04/13 00:23:39;;;;;;;5.78;2.95;;;;;;;;;;5097794;28;20037;-78
2022/04/13 00:26:05;;;;;;;4.78;2.85;;;;;;;;;;5079644;28;20032;-79
2022/04/13 00:28:30;;;;;;;6.18;3.30;;;;;;;;;;5079182;28;20028;-78
2022/04/13 00:30:56;;;;;;;5.90;2.90;;;;;;;;;;5097337;28;20407;-78
2022/04/13 00:33:21;;;;;;;7.40;3.35;;;;;;;;;;5098775;28;20036;-78
2022/04/13 00:35:47;;;;;;;7.18;3.40;;;;;;;;;;5100291;28;20039;-78
2022/04/13 00:38:12;;;;;;;6.60;3.33;;;;;;;;;;5079060;28;20044;-78
2022/04/13 00:40:41;;;;;;;6.68;3.22;;;;;;;;;;5097222;28;20392;-78
2022/04/13 00:43:07;;;;;;;9.18;4.28;;;;;;;;;;5063465;28;20028;-78
2022/04/13 00:45:33;;;;;;;7.35;3.45;;;;;;;;;;5096945;28;20035;-78
2022/04/13 00:47:59;;;;;;;4.47;3.05;;;;;;;;;;5062764;28;20165;-78
2022/04/13 00:50:25;;;;;;;7.93;3.63;;;;;;;;;;5079049;28;20036;-78
2022/04/13 00:52:50;;;;;;;6.63;3.72;;;;;;;;;;5096930;28;20035;-79
2022/04/13 00:55:16;;;;;;;7.60;3.28;;;;;;;;;;5082470;28;20050;-78
2022/04/13 00:57:41;;;;;;;5.97;3.10;;;;;;;;;;5078998;28;20050;-78
2022/04/13 01:00:09;;;;;;;5.72;3.28;;;;;;;;;;5062395;28;20051;-79
2022/04/13 01:02:36;;;;;;;6.90;3.70;;;;;;;;;;5096836;28;20032;-79
2022/04/13 01:05:03;;;;;;;5.32;3.17;;;;;;;;;;5062063;28;20036;-78
2022/04/13 01:07:28;;;;;;;7.25;3.60;;;;;;;;;;5096685;28;20051;-78
2022/04/13 01:09:54;;;;;;;5.35;3.00;;;;;;;;;;5078600;28;20060;-79
2022/04/13 01:12:19;;;;;;;8.20;3.78;;;;;;;;;;5078604;28;20458;-79
2022/04/13 01:14:45;;;;;;;9.02;3.85;;;;;;;;;;5063714;28;20096;-78
2022/04/13 01:17:10;;;;;;;8.43;3.85;;;;;;;;;;5051150;28;20080;-78
2022/04/13 01:19:36;;;;;;;4.22;2.65;;;;;;;;;;5096536;28;20027;-78
2022/04/13 01:22:25;;;;;;;6.95;3.05;;;;;;;;;;5078390;28;20093;-79
2022/04/13 01:24:50;;;;;;;7.53;3.75;;;;;;;;;;5078173;28;20040;-79
2022/04/13 01:27:16;;;;;;;8.65;4.15;;;;;;;;;;5060820;28;20449;-78
2022/04/13 01:29:42;;;;;;;4.88;2.80;;;;;;;;;;5096438;28;20343;-79
2022/04/13 01:32:09;;;;;;;6.65;4.10;;;;;;;;;;5078428;28;20035;-78
2022/04/13 01:34:34;;;;;;;8.63;3.72;;;;;;;;;;5096165;28;20024;-78
2022/04/13 01:37:00;;;;;;;6.05;3.33;;;;;;;;;;5102266;28;20118;-78
2022/04/13 01:39:25;;;;;;;7.45;3.50;;;;;;;;;;5078336;28;20077;-77
2022/04/13 01:41:51;;;;;;;4.05;3.25;;;;;;;;;;5096083;28;20468;-78
2022/04/13 01:44:17;;;;;;;6.07;3.20;;;;;;;;;;5077918;28;20114;-78
2022/04/13 01:46:43;;;;;;;6.07;3.58;;;;;;;;;;5096124;28;20136;-78
2022/04/13 01:49:08;;;;;;;5.63;3.53;;;;;;;;;;5096127;28;20059;-78
2022/04/13 01:51:34;;;;;;;9.15;3.50;;;;;;;;;;5095834;28;20051;-78
2022/04/13 01:53:59;;;;;;;6.50;3.42;;;;;;;;;;5095747;28;20039;-79
2022/04/13 01:56:24;;;;;;;5.90;3.45;;;;;;;;;;5099220;28;20531;-78
2022/04/13 01:58:50;;;;;;;8.45;3.97;;;;;;;;;;5100012;28;20088;-78
2022/04/13 02:01:17;;;;;;;8.23;3.78;;;;;;;;;;5095818;28;20089;-78
2022/04/13 02:03:43;;;;;;;10.77;3.70;;;;;;;;;;5078093;28;20364;-78
2022/04/13 02:06:08;;;;;;;6.05;3.80;;;;;;;;;;5077397;28;20107;-78
2022/04/13 02:08:34;;;;;;;6.93;3.95;;;;;;;;;;5095745;28;20051;-79
2022/04/13 02:10:59;;;;;;;6.68;3.30;;;;;;;;;;5095438;28;20449;-78
2022/04/13 02:13:25;;;;;;;6.30;3.55;;;;;;;;;;5095082;28;20032;-78
2022/04/13 02:15:50;;;;;;;9.55;3.65;;;;;;;;;;5060735;28;20370;-78
2022/04/13 02:18:16;;;;;;;7.75;3.63;;;;;;;;;;5095411;28;20498;-77
2022/04/13 02:20:41;;;;;;;7.25;3.42;;;;;;;;;;5077193;28;20625;-78
2022/04/13 02:23:07;;;;;;;8.55;3.58;;;;;;;;;;5060438;28;20032;-79
2022/04/13 02:25:35;;;;;;;8.50;3.70;;;;;;;;;;5077159;28;20188;-79
2022/04/13 02:28:04;;;;;;;6.95;4.38;;;;;;;;;;5094972;28;20031;-77
2022/04/13 02:30:30;;;;;;;6.65;3.80;;;;;;;;;;5094987;28;20036;-79
2022/04/13 02:32:55;;;;;;;8.68;4.07;;;;;;;;;;5077043;28;20050;-78
2022/04/13 02:35:21;;;;;;;6.55;3.83;;;;;;;;;;5077005;28;20032;-78
2022/04/13 02:37:46;;;;;;;6.50;4.07;;;;;;;;;;5063957;28;20040;-78
2022/04/13 02:40:16;;;;;;;7.47;3.50;;;;;;;;;;5099082;28;20034;-77
2022/04/13 02:42:41;;;;;;;8.02;3.47;;;;;;;;;;5076766;28;20449;-78
2022/04/13 02:45:07;;;;;;;8.23;3.92;;;;;;;;;;5076821;28;20103;-79
2022/04/13 02:47:34;;;;;;;12.65;4.57;;;;;;;;;;5076868;28;20092;-78
2022/04/13 02:50:00;;;;;;;6.60;3.72;;;;;;;;;;5060414;28;20032;-78
2022/04/13 02:52:28;;;;;;;9.80;3.75;;;;;;;;;;5076741;28;20028;-79
2022/04/13 02:54:54;;;;;;;12.98;4.57;;;;;;;;;;5060497;28;20027;-79
2022/04/13 02:57:19;;;;;;;7.28;4.55;;;;;;;;;;5076541;28;20484;-78
2022/04/13 02:59:46;;;;;;;7.55;4.70;;;;;;;;;;5099484;28;20028;-78
2022/04/13 03:02:14;;;;;;;9.68;5.03;;;;;;;;;;5060204;28;20028;-78
2022/04/13 03:04:40;;;;;;;8.93;4.68;;;;;;;;;;5094602;28;20453;-78
2022/04/13 03:07:06;;;;;;;9.30;5.43;;;;;;;;;;5076501;28;20028;-78
2022/04/13 03:09:31;;;;;;;12.98;6.53;;;;;;;;;;5094193;28;20020;-78
2022/04/13 03:11:57;;;;;;;15.23;6.35;;;;;;;;;;5076226;28;20108;-78
2022/04/13 03:14:23;;;;;;;11.50;6.18;;;;;;;;;;5043171;28;20388;-78
2022/04/13 03:16:48;;;;;;;9.40;5.13;;;;;;;;;;5094629;28;20093;-78
2022/04/13 03:19:14;;;;;;;18.10;6.50;;;;;;;;;;5095340;28;20036;-78
2022/04/13 03:21:39;;;;;;;12.18;6.22;;;;;;;;;;5095594;28;20131;-78
2022/04/13 03:24:05;;;;;;;12.07;6.25;;;;;;;;;;5075987;28;20038;-78
2022/04/13 03:26:30;;;;;;;11.13;6.15;;;;;;;;;;5094272;28;20028;-79
2022/04/13 03:28:56;;;;;;;10.25;5.65;;;;;;;;;;5094188;28;20048;-78
2022/04/13 03:31:22;;;;;;;13.63;6.40;;;;;;;;;;5094382;28;20394;-78
2022/04/13 03:33:48;;;;;;;12.00;6.80;;;;;;;;;;5094118;28;20035;-79
2022/04/13 03:36:15;;;;;;;12.35;7.03;;;;;;;;;;5094431;28;20460;-78
2022/04/13 03:38:40;;;;;;;11.48;5.88;;;;;;;;;;5093904;28;20051;-78
2022/04/13 03:41:06;;;;;;;13.48;7.07;;;;;;;;;;5099721;28;20464;-78
2022/04/13 03:43:31;;;;;;;17.80;6.57;;;;;;;;;;5093974;28;20377;-79
2022/04/13 03:45:57;;;;;;;12.57;6.65;;;;;;;;;;5094010;28;20032;-78
2022/04/13 03:48:22;;;;;;;17.67;7.25;;;;;;;;;;5076159;28;20039;-78
2022/04/13 03:50:49;;;;;;;14.50;7.57;;;;;;;;;;5098115;28;20028;-78
2022/04/13 03:53:15;;;;;;;12.32;7.55;;;;;;;;;;5080077;28;20042;-79
2022/04/13 03:55:41;;;;;;;14.60;7.13;;;;;;;;;;5098131;28;20032;-78
2022/04/13 03:58:06;;;;;;;13.35;6.90;;;;;;;;;;5079973;28;20048;-78
2022/04/13 04:00:32;;;;;;;12.30;6.50;;;;;;;;;;5065145;28;20032;-78
2022/04/13 04:02:57;;;;;;;9.05;6.13;;;;;;;;;;5080114;28;20024;-78
2022/04/13 04:05:23;;;;;;;11.65;6.32;;;;;;;;;;5079817;28;20499;-78
2022/04/13 04:07:49;;;;;;;10.45;5.70;;;;;;;;;;5046450;28;20032;-78
2022/04/13 04:10:14;;;;;;;18.55;6.55;;;;;;;;;;5079835;28;20023;-78
2022/04/13 04:12:40;;;;;;;10.23;6.35;;;;;;;;;;5097564;28;20361;-77
2022/04/13 04:15:08;;;;;;;12.43;7.00;;;;;;;;;;5097730;28;20084;-77
2022/04/13 04:17:34;;;;;;;13.55;6.35;;;;;;;;;;5063263;28;20410;-77
2022/04/13 04:19:59;;;;;;;14.25;7.53;;;;;;;;;;5098205;28;20059;-77
2022/04/13 04:22:25;;;;;;;14.55;7.10;;;;;;;;;;5098290;28;20055;-77
2022/04/13 04:24:51;;;;;;;11.93;6.68;;;;;;;;;;5062595;28;20032;-77
2022/04/13 04:27:16;;;;;;;15.45;6.43;;;;;;;;;;5095543;28;20035;-81
2022/04/13 04:29:42;;;;;;;14.38;6.68;;;;;;;;;;5097084;28;20166;-78
2022/04/13 04:32:07;;;;;;;20.80;6.80;;;;;;;;;;5097472;28;20036;-77
2022/04/13 04:34:33;;;;;;;16.50;7.57;;;;;;;;;;5097257;28;20032;-77
2022/04/13 04:36:59;;;;;;;18.65;8.30;;;;;;;;;;5096880;28;20035;-77
2022/04/13 04:39:25;;;;;;;17.13;8.38;;;;;;;;;;5097264;28;20467;-77
2022/04/13 04:41:51;;;;;;;21.45;9.02;;;;;;;;;;5079899;28;20161;-77
2022/04/13 04:44:17;;;;;;;26.75;10.82;;;;;;;;;;5045574;28;20437;-77
2022/04/13 04:46:42;;;;;;;27.83;10.75;;;;;;;;;;5058897;28;20043;-77
2022/04/13 04:49:08;;;;;;;24.80;10.23;;;;;;;;;;5082675;28;20369;-78
2022/04/13 04:51:34;;;;;;;18.77;8.10;;;;;;;;;;5078667;28;20035;-77
2022/04/13 04:54:01;;;;;;;20.67;8.30;;;;;;;;;;5089460;28;20482;-79
2022/04/13 04:56:26;;;;;;;22.92;10.38;;;;;;;;;;5064546;28;20070;-78
2022/04/13 04:58:52;;;;;;;26.17;11.13;;;;;;;;;;5082485;28;20024;-78
2022/04/13 05:01:47;;;;;;;23.85;9.52;;;;;;;;;;5079768;28;20065;-77
2022/04/13 05:04:12;;;;;;;18.70;8.00;;;;;;;;;;5064426;28;20245;-75
2022/04/13 05:06:39;;;;;;;14.82;7.18;;;;;;;;;;5088442;28;20119;-79
2022/04/13 05:09:04;;;;;;;16.83;7.20;;;;;;;;;;5089802;28;20127;-78
2022/04/13 05:11:30;;;;;;;11.93;6.15;;;;;;;;;;5086990;28;20148;-78
2022/04/13 05:13:55;;;;;;;12.13;5.55;;;;;;;;;;5069251;28;20504;-77
2022/04/13 05:16:24;;;;;;;12.02;6.15;;;;;;;;;;5064454;28;20020;-76
2022/04/13 05:18:50;;;;;;;14.20;6.00;;;;;;;;;;5085763;28;20019;-78
2022/04/13 05:21:16;;;;;;;17.42;6.40;;;;;;;;;;5066637;28;20029;-78
2022/04/13 05:23:59;;;;;;;11.75;6.53;;;;;;;;;;5086227;28;20027;-79
2022/04/13 05:26:28;;;;;;;11.18;5.93;;;;;;;;;;5054375;28;20521;-78
2022/04/13 05:29:21;;;;;;;9.27;5.38;;;;;;;;;;5086540;28;20052;-79
2022/04/13 05:31:48;;;;;;;14.75;5.72;;;;;;;;;;5054927;28;20044;-78
2022/04/13 05:34:14;;;;;;;10.38;5.88;;;;;;;;;;5064497;28;20036;-77
2022/04/13 05:36:40;;;;;;;11.23;5.75;;;;;;;;;;5063808;28;20101;-79
2022/04/13 05:39:06;;;;;;;11.55;5.95;;;;;;;;;;5079378;28;20374;-79
2022/04/13 05:41:31;;;;;;;15.05;6.72;;;;;;;;;;5088543;28;20025;-80
2022/04/13 05:43:57;;;;;;;13.45;5.80;;;;;;;;;;5092615;28;20054;-81
2022/04/13 05:49:38;;;;;;;14.70;6.43;;;;;;;;;;5017544;28;20041;-83
2022/04/13 05:52:07;;;;;;;13.43;6.63;;;;;;;;;;5045538;28;20072;-83
2022/04/13 05:54:32;;;;;;;11.25;6.75;;;;;;;;;;5030267;28;20096;-83
2022/04/13 05:57:02;;;;;;;11.88;7.30;;;;;;;;;;5036779;28;20049;-83
2022/04/13 05:59:28;;;;;;;12.38;6.60;;;;;;;;;;5012718;28;20033;-80
2022/04/13 06:01:54;;;;;;;12.60;6.20;;;;;;;;;;5042790;28;20180;-78
2022/04/13 06:04:19;;;;;;;10.57;5.70;;;;;;;;;;5042152;28;20028;-79
2022/04/13 06:06:46;;;;;;;13.38;7.10;;;;;;;;;;5035922;28;20091;-80
2022/04/13 06:09:12;;;;;;;10.32;6.68;;;;;;;;;;5037487;28;20037;-80
2022/04/13 06:11:38;;;;;;;9.38;5.72;;;;;;;;;;5039684;28;20037;-82
2022/04/13 06:14:04;;;;;;;11.00;6.45;;;;;;;;;;5056058;28;20078;-80
2022/04/13 06:16:31;;;;;;;9.40;6.45;;;;;;;;;;5051813;28;20060;-80
2022/04/13 06:18:56;;;;;;;9.85;6.75;;;;;;;;;;5052165;28;20128;-80
2022/04/13 06:21:22;;;;;;;10.95;6.93;;;;;;;;;;5035272;28;20128;-78
2022/04/13 06:23:47;;;;;;;9.57;6.05;;;;;;;;;;5010383;28;20141;-81
2022/04/13 06:26:14;;;;;;;11.23;7.03;;;;;;;;;;5011318;28;20129;-77
2022/04/13 06:28:40;;;;;;;10.48;6.75;;;;;;;;;;5024230;28;20037;-79
2022/04/13 06:31:05;;;;;;;10.85;7.05;;;;;;;;;;5041514;28;20052;-76
2022/04/13 06:33:32;;;;;;;9.02;6.28;;;;;;;;;;5050888;28;20088;-77
2022/04/13 06:35:58;;;;;;;8.65;5.45;;;;;;;;;;5031313;28;20049;-78
2022/04/13 06:38:24;;;;;;;9.13;5.80;;;;;;;;;;5042452;28;20029;-79
2022/04/13 06:40:50;;;;;;;9.13;5.38;;;;;;;;;;5034910;28;20069;-82
2022/04/13 06:43:48;;;;;;;9.45;6.13;;;;;;;;;;5025728;28;20041;-84
2022/04/13 06:46:17;;;;;;;8.38;5.40;;;;;;;;;;5063901;28;20112;-80
2022/04/13 06:48:46;;;;;;;9.98;5.55;;;;;;;;;;5067760;28;20036;-84
2022/04/13 06:51:40;;;;;;;9.35;5.32;;;;;;;;;;5065710;28;20052;-81
2022/04/13 06:54:06;;;;;;;10.75;6.03;;;;;;;;;;5066967;28;20135;-80
2022/04/13 06:56:42;;;;;;;6.95;4.90;;;;;;;;;;5085522;28;20065;-81
2022/04/13 06:59:08;;;;;;;15.43;9.43;;;;;;;;;;5099344;22;20108;-80
2022/04/13 07:07:31;;;;;;;14.02;8.20;;;;;;;;;;5711595;22;20055;-80
2022/04/13 07:10:03;;;;;;;10.25;6.15;;;;;;;;;;5081752;28;20035;-79
2022/04/13 07:12:39;;;;;;;9.82;6.03;;;;;;;;;;5088857;28;20035;-81
2022/04/13 07:15:16;;;;;;;9.68;6.13;;;;;;;;;;5069059;28;20042;-81
2022/04/13 07:18:17;;;;;;;13.25;7.90;;;;;;;;;;5083091;28;20044;-84
2022/04/13 07:20:43;;;;;;;9.18;6.00;;;;;;;;;;5068009;28;20055;-79
2022/04/13 07:23:09;;;;;;;9.93;6.95;;;;;;;;;;5074779;28;20445;-78
2022/04/13 07:25:37;;;;;;;9.68;6.10;;;;;;;;;;5085385;28;20058;-83
2022/04/13 07:28:05;;;;;;;10.73;6.10;;;;;;;;;;5049371;28;20056;-80
2022/04/13 07:30:31;;;;;;;12.18;7.30;;;;;;;;;;5083196;28;20040;-76
2022/04/13 07:33:04;;;;;;;11.70;6.82;;;;;;;;;;5075358;28;20525;-82
2022/04/13 07:35:30;;;;;;;9.10;5.82;;;;;;;;;;5083112;28;20052;-78
2022/04/13 07:37:56;;;;;;;9.65;5.55;;;;;;;;;;5080925;28;20092;-81
2022/04/13 07:40:23;;;;;;;10.10;6.18;;;;;;;;;;5079601;28;20035;-84
2022/04/13 07:42:50;;;;;;;8.70;5.75;;;;;;;;;;5077120;28;20104;-82
2022/04/13 07:45:15;;;;;;;8.20;4.90;;;;;;;;;;5077809;28;20524;-80
2022/04/13 07:47:41;;;;;;;8.63;5.70;;;;;;;;;;5089143;28;20028;-81
2022/04/13 07:50:16;;;;;;;7.85;5.35;;;;;;;;;;5215364;22;20055;-85
2022/04/13 07:52:42;;;;;;;7.40;5.35;;;;;;;;;;5096625;28;20122;-86
2022/04/13 07:55:09;;;;;;;9.98;6.40;;;;;;;;;;5056419;28;20078;-86
2022/04/13 07:57:37;;;;;;;7.00;5.43;;;;;;;;;;5081292;28;20033;-89
2022/04/13 08:00:04;;;;;;;7.78;5.70;;;;;;;;;;5091163;28;20106;-87
2022/04/13 08:02:34;;;;;;;8.75;5.80;;;;;;;;;;5082455;28;20028;-86
2022/04/13 08:04:59;;;;;;;;;;;;;;;;;;5098660;28;20554;-86
2022/04/13 08:07:26;;;;;;;8.68;5.82;;;;;;;;;;5090207;28;19916;-88
2022/04/13 08:10:13;;;;;;;8.43;6.18;;;;;;;;;;5092065;28;20032;-82
2022/04/13 08:12:56;;;;;;;10.50;6.13;;;;;;;;;;5068746;28;20071;-84
2022/04/13 08:15:22;;;;;;;9.63;5.90;;;;;;;;;;5077119;28;20029;-82
2022/04/13 08:17:47;;;;;;;9.70;5.70;;;;;;;;;;5069742;28;20500;-81
2022/04/13 08:20:28;;;;;;;12.80;7.15;;;;;;;;;;5070739;28;20036;-78
2022/04/13 08:22:53;;;;;;;10.25;6.25;;;;;;;;;;5085992;28;20028;-77
2022/04/13 08:25:19;;;;;;;10.07;6.38;;;;;;;;;;5086708;28;20127;-79
2022/04/13 08:28:00;;;;;;;8.98;6.07;;;;;;;;;;5093370;28;20034;-79
2022/04/13 08:30:54;;;;;;;8.32;6.13;;;;;;;;;;5092347;28;20065;-77
2022/04/13 08:33:20;;;;;;;8.75;5.70;;;;;;;;;;5075807;28;20053;-80
2022/04/13 08:38:32;;;;;;;9.02;6.13;;;;;;;;;;5082256;22;20044;-75
2022/04/13 08:41:06;;;;;;;11.43;6.75;;;;;;;;;;5096877;28;20068;-76
2022/04/13 08:43:52;;;;;;;7.05;5.30;;;;;;;;;;5105467;28;20036;-78
2022/04/13 08:46:25;;;;;;;9.88;6.13;;;;;;;;;;5077812;28;20067;-78
2022/04/13 08:48:55;;;;;;;6.57;5.10;;;;;;;;;;5079145;28;20032;-78
2022/04/13 08:51:33;;;;;;;8.75;6.15;;;;;;;;;;5081814;28;20027;-81
2022/04/13 08:54:34;;;;;;;11.02;5.95;;;;;;;;;;5100444;28;20039;-86
2022/04/13 08:57:00;;;;;;;10.75;5.70;;;;;;;;;;5080331;28;20032;-79
2022/04/13 09:02:46;;;;;;;9.48;5.82;;;;;;;;;;4931466;26;20051;-80
2022/04/13 09:05:29;;;;;;;12.25;6.60;;;;;;;;;;5083320;28;20062;-83
2022/04/13 09:08:12;;;;;;;10.40;6.78;;;;;;;;;;5064855;28;20033;-79
2022/04/13 09:10:39;;;;;;;10.48;6.47;;;;;;;;;;5078274;28;20071;-80
2022/04/13 09:13:06;;;;;;;8.32;5.97;;;;;;;;;;5072782;28;20040;-83
2022/04/13 09:15:34;;;;;;;10.20;6.68;;;;;;;;;;5099128;28;20031;-79
2022/04/13 09:18:08;;;;;;;;;;;;;;;;;;5070135;28;20503;-82
2022/04/13 09:20:33;;;;;;;9.82;6.40;;;;;;;;;;5102767;22;19920;-81
2022/04/13 09:23:03;;;;;;;9.10;6.32;;;;;;;;;;5078767;28;20043;-81
2022/04/13 09:26:09;;;;;;;8.10;5.80;;;;;;;;;;5044400;28;20441;-82
2022/04/13 09:28:34;;;;;;;11.38;5.90;;;;;;;;;;5056942;28;20092;-78
2022/04/13 09:31:00;;;;;;;15.73;8.82;;;;;;;;;;5072132;28;20047;-79
2022/04/13 09:33:26;;;;;;;9.50;6.50;;;;;;;;;;5081949;28;20136;-79
2022/04/13 09:35:53;;;;;;;10.60;7.03;;;;;;;;;;5076180;28;20028;-78
2022/04/13 09:38:19;;;;;;;9.60;5.45;;;;;;;;;;5078197;28;20386;-78
2022/04/13 09:40:45;;;;;;;8.98;5.72;;;;;;;;;;5089075;28;20028;-77
2022/04/13 09:43:15;;;;;;;10.32;6.13;;;;;;;;;;5082073;28;20036;-83
2022/04/13 09:45:49;;;;;;;9.30;5.93;;;;;;;;;;5085029;28;20032;-84
2022/04/13 09:48:19;;;;;;;8.25;5.78;;;;;;;;;;5065586;28;20032;-87
2022/04/13 09:50:49;;;;;;;10.68;6.00;;;;;;;;;;5057511;28;20049;-82
2022/04/13 09:53:15;;;;;;;10.30;6.28;;;;;;;;;;5061157;28;20020;-82
2022/04/13 09:55:42;;;;;;;8.25;5.45;;;;;;;;;;5062676;28;20036;-80
2022/04/13 09:58:37;;;;;;;7.60;5.45;;;;;;;;;;5062577;28;20024;-80
2022/04/13 10:01:46;;;;;;;7.15;5.35;;;;;;;;;;5069845;28;20025;-80
2022/04/13 10:04:22;;;;;;;9.35;4.88;;;;;;;;;;5079640;28;20467;-82
2022/04/13 10:06:48;;;;;;;9.98;6.45;;;;;;;;;;5078465;28;20028;-80
2022/04/13 10:09:14;;;;;;;9.10;5.43;;;;;;;;;;5060934;28;20368;-79
2022/04/13 10:11:56;;;;;;;10.95;6.03;;;;;;;;;;5076099;28;20032;-78
2022/04/13 10:14:22;;;;;;;8.02;5.80;;;;;;;;;;5064218;28;20032;-80
2022/04/13 10:16:56;;;;;;;10.23;6.78;;;;;;;;;;5096989;28;20028;-78
2022/04/13 10:19:21;;;;;;;7.43;5.40;;;;;;;;;;5095092;28;20031;-77
2022/04/13 10:21:51;;;;;;;9.13;6.10;;;;;;;;;;5083696;28;20024;-77
2022/04/13 10:24:19;;;;;;;6.65;5.00;;;;;;;;;;5062982;28;20070;-78
2022/04/13 10:27:02;;;;;;;7.28;4.63;;;;;;;;;;5094069;28;20035;-79
2022/04/13 10:29:27;;;;;;;7.15;4.63;;;;;;;;;;5060414;28;20036;-80
2022/04/13 10:32:17;;;;;;;7.05;4.30;;;;;;;;;;5058923;28;20093;-77
2022/04/13 10:34:47;;;;;;;7.38;4.28;;;;;;;;;;5048959;28;20055;-78
2022/04/13 10:37:20;;;;;;;6.53;4.50;;;;;;;;;;5047794;28;20040;-79
2022/04/13 10:39:54;;;;;;;7.85;4.05;;;;;;;;;;5080694;28;20040;-80
2022/04/13 10:42:20;;;;;;;6.57;3.97;;;;;;;;;;5080556;28;20032;-79
2022/04/13 10:44:51;;;;;;;7.72;4.55;;;;;;;;;;5055064;28;20021;-79
2022/04/13 10:47:18;;;;;;;8.23;5.32;;;;;;;;;;5088934;28;20028;-76
2022/04/13 10:50:03;;;;;;;5.78;3.90;;;;;;;;;;5078745;28;20091;-79
2022/04/13 10:52:34;;;;;;;11.68;5.55;;;;;;;;;;5060371;28;20041;-79
2022/04/13 10:55:27;;;;;;;8.85;4.78;;;;;;;;;;5053213;28;20129;-80
2022/04/13 10:57:53;;;;;;;6.43;4.55;;;;;;;;;;5054297;28;20072;-78
2022/04/13 11:00:19;;;;;;;5.80;3.65;;;;;;;;;;5073131;28;20032;-77
2022/04/13 11:02:57;;;;;;;5.38;3.50;;;;;;;;;;5056714;28;20036;-79
2022/04/13 11:05:27;;;;;;;6.57;3.50;;;;;;;;;;5056122;28;20056;-78
2022/04/13 11:08:10;;;;;;;5.82;3.90;;;;;;;;;;5056831;28;20025;-79
2022/04/13 11:10:37;;;;;;;7.90;4.88;;;;;;;;;;5055274;28;20064;-78
2022/04/13 11:13:03;;;;;;;6.70;4.25;;;;;;;;;;5040667;28;20098;-78
2022/04/13 11:15:48;;;;;;;6.47;3.80;;;;;;;;;;5038701;28;20028;-81
2022/04/13 11:18:18;;;;;;;7.57;3.47;;;;;;;;;;5072155;28;20025;-79
2022/04/13 11:20:58;;;;;;;6.78;3.50;;;;;;;;;;5095803;28;20481;-79
2022/04/13 11:23:24;;;;;;;5.53;3.30;;;;;;;;;;5093774;28;20460;-78
2022/04/13 11:25:58;;;;;;;5.07;2.88;;;;;;;;;;5092395;28;20032;-78
2022/04/13 11:28:28;;;;;;;5.57;3.55;;;;;;;;;;5075079;28;20051;-79
2022/04/13 11:31:09;;;;;;;4.68;3.00;;;;;;;;;;5073186;28;20028;-77
2022/04/13 11:33:56;;;;;;;4.68;3.05;;;;;;;;;;5076527;28;20052;-79
2022/04/13 11:36:24;;;;;;;4.25;3.08;;;;;;;;;;5056411;28;20028;-79
2022/04/13 11:38:51;;;;;;;4.35;3.00;;;;;;;;;;5052921;28;20519;-80
2022/04/13 11:41:16;;;;;;;6.60;3.25;;;;;;;;;;5083616;28;20028;-79
2022/04/13 11:43:42;;;;;;;5.95;3.25;;;;;;;;;;5077174;28;20032;-79
2022/04/13 11:46:11;;;;;;;6.18;3.25;;;;;;;;;;5059922;28;20032;-79
2022/04/13 11:48:36;;;;;;;6.90;3.50;;;;;;;;;;5076337;28;20025;-81
2022/04/13 11:51:29;;;;;;;6.25;3.65;;;;;;;;;;5053512;28;20464;-75
2022/04/13 11:54:05;;;;;;;6.57;3.80;;;;;;;;;;5052592;28;20407;-74
2022/04/13 11:56:51;;;;;;;7.00;3.75;;;;;;;;;;5069459;28;20087;-73
2022/04/13 11:59:37;;;;;;;7.50;4.25;;;;;;;;;;5070608;28;20023;-72
2022/04/13 12:02:06;;;;;;;7.72;4.20;;;;;;;;;;5070733;28;20035;-74
2022/04/13 12:04:32;;;;;;;7.32;4.43;;;;;;;;;;5054241;28;20123;-73
2022/04/13 12:06:57;;;;;;;5.22;3.70;;;;;;;;;;5051466;28;20120;-73
2022/04/13 12:09:23;;;;;;;9.77;3.92;;;;;;;;;;5086771;28;20035;-72
2022/04/13 12:11:49;;;;;;;6.20;3.40;;;;;;;;;;5094715;28;20054;-74
2022/04/13 12:14:35;;;;;;;6.20;3.53;;;;;;;;;;5077050;28;20039;-73
2022/04/13 12:17:02;;;;;;;9.05;5.82;;;;;;;;;;5077494;28;20107;-73
2022/04/13 12:19:37;;;;;;;15.13;8.55;;;;;;;;;;5095710;28;20075;-73
2022/04/13 12:22:13;;;;;;;7.40;4.10;;;;;;;;;;5078818;28;20024;-73
2022/04/13 12:25:14;;;;;;;10.32;5.40;;;;;;;;;;5079141;28;20065;-73
2022/04/13 12:27:39;;;;;;;9.23;5.45;;;;;;;;;;5063318;28;20340;-78
2022/04/13 12:30:10;;;;;;;6.47;4.57;;;;;;;;;;5077736;28;20032;-80
2022/04/13 12:32:45;;;;;;;7.93;4.55;;;;;;;;;;5079135;28;20102;-78
2022/04/13 12:35:10;;;;;;;7.85;3.88;;;;;;;;;;5062367;28;20063;-78
2022/04/13 12:37:36;;;;;;;7.72;4.70;;;;;;;;;;5046441;28;20043;-78
2022/04/13 12:40:24;;;;;;;13.77;8.10;;;;;;;;;;5061935;28;20445;-78
2022/04/13 12:42:50;;;;;;;8.55;5.28;;;;;;;;;;5062283;28;20024;-79
2022/04/13 12:45:17;;;;;;;20.30;10.82;;;;;;;;;;5063423;28;20047;-80
2022/04/13 12:47:46;;;;;;;6.93;4.57;;;;;;;;;;5078903;28;20020;-79
2022/04/13 12:50:12;;;;;;;8.23;4.57;;;;;;;;;;5078260;28;20028;-80
2022/04/13 12:52:38;;;;;;;6.45;3.90;;;;;;;;;;5062649;28;20046;-79
2022/04/13 12:55:04;;;;;;;4.47;2.58;;;;;;;;;;5045751;28;20528;-79
2022/04/13 12:57:30;;;;;;;7.30;3.60;;;;;;;;;;5101123;28;20389;-78
2022/04/13 12:59:56;;;;;;;6.20;3.45;;;;;;;;;;5079105;28;20027;-78
2022/04/13 13:02:21;;;;;;;9.45;3.78;;;;;;;;;;5077658;28;20020;-80
2022/04/13 13:04:48;;;;;;;6.90;3.25;;;;;;;;;;5095142;28;20369;-79
2022/04/13 13:07:13;;;;;;;7.35;4.32;;;;;;;;;;5077641;28;20024;-79
2022/04/13 13:09:40;;;;;;;6.47;3.88;;;;;;;;;;5061128;28;20076;-79
2022/04/13 13:12:08;;;;;;;3.75;2.75;;;;;;;;;;5044741;28;20106;-78
2022/04/13 13:14:40;;;;;;;5.35;2.83;;;;;;;;;;5078244;28;20177;-78
2022/04/13 13:17:27;;;;;;;6.20;3.83;;;;;;;;;;5078762;28;20342;-79
2022/04/13 13:19:54;;;;;;;3.90;2.92;;;;;;;;;;5102540;28;20322;-78
2022/04/13 13:22:24;;;;;;;12.73;6.40;;;;;;;;;;5077271;28;20024;-79
2022/04/13 13:25:01;;;;;;;3.78;2.58;;;;;;;;;;5096326;28;20020;-79
2022/04/13 13:27:59;;;;;;;5.63;3.33;;;;;;;;;;5096518;28;20028;-80
2022/04/13 13:30:26;;;;;;;4.30;2.63;;;;;;;;;;5096263;28;20475;-76
2022/04/13 13:32:58;;;;;;;4.45;2.38;;;;;;;;;;5096738;28;20024;-80
2022/04/13 13:35:32;;;;;;;3.45;2.17;;;;;;;;;;5062779;28;20028;-79
2022/04/13 13:38:06;;;;;;;5.28;3.28;;;;;;;;;;5079355;28;20032;-78
2022/04/13 13:40:39;;;;;;;3.75;2.13;;;;;;;;;;5079110;28;20039;-78
2022/04/13 13:43:25;;;;;;;3.80;2.70;;;;;;;;;;5095900;28;20061;-79
2022/04/13 13:45:52;;;;;;;4.60;2.97;;;;;;;;;;5078036;28;20031;-78
2022/04/13 13:48:21;;;;;;;3.20;2.45;;;;;;;;;;5061374;28;20028;-79
2022/04/13 13:50:48;;;;;;;4.97;2.10;;;;;;;;;;5078552;28;20035;-80
2022/04/13 13:53:13;;;;;;;7.45;2.40;;;;;;;;;;5061492;28;20024;-79
2022/04/13 13:55:43;;;;;;;2.13;1.83;;;;;;;;;;5078030;28;20027;-81
2022/04/13 13:58:09;;;;;;;3.75;2.33;;;;;;;;;;5081477;28;20098;-80
2022/04/13 14:00:37;;;;;;;3.65;2.45;;;;;;;;;;5102843;28;20031;-79
2022/04/13 14:03:03;;;;;;;2.92;2.33;;;;;;;;;;5077811;28;20035;-80
2022/04/13 14:05:29;;;;;;;7.18;2.60;;;;;;;;;;5077794;28;20063;-79
2022/04/13 14:07:56;;;;;;;4.38;2.17;;;;;;;;;;5061190;28;20039;-80
2022/04/13 14:10:21;;;;;;;3.30;2.25;;;;;;;;;;5076953;28;20024;-80
2022/04/13 14:12:47;;;;;;;3.40;2.03;;;;;;;;;;5059265;28;20016;-80
2022/04/13 14:15:13;;;;;;;2.13;1.90;;;;;;;;;;5059797;28;20024;-80
2022/04/13 14:17:39;;;;;;;2.50;1.90;;;;;;;;;;5076589;28;20507;-80
2022/04/13 14:20:05;;;;;;;3.30;1.88;;;;;;;;;;5071340;28;20064;-79
2022/04/13 14:22:31;;;;;;;5.57;2.00;;;;;;;;;;5060421;28;20028;-79
2022/04/13 14:24:57;;;;;;;2.20;1.80;;;;;;;;;;5060557;28;20067;-79
2022/04/13 14:27:22;;;;;;;4.38;2.20;;;;;;;;;;5076760;28;20024;-79
2022/04/13 14:29:48;;;;;;;3.47;2.10;;;;;;;;;;5077060;28;20024;-79
2022/04/13 14:32:13;;;;;;;2.25;1.85;;;;;;;;;;5076953;28;20032;-79
2022/04/13 14:34:39;;;;;;;4.28;1.95;;;;;;;;;;5060348;28;20357;-79
2022/04/13 14:37:06;;;;;;;2.55;1.80;;;;;;;;;;5095069;28;20032;-79
2022/04/13 14:39:31;;;;;;;2.25;1.80;;;;;;;;;;5065459;28;20040;-79
2022/04/13 14:41:57;;;;;;;3.35;1.90;;;;;;;;;;5079229;28;20035;-79
2022/04/13 14:44:22;;;;;;;4.18;1.80;;;;;;;;;;5094915;28;20380;-79
2022/04/13 14:46:48;;;;;;;2.53;1.75;;;;;;;;;;5076568;28;20370;-79
2022/04/13 14:49:13;;;;;;;2.40;1.73;;;;;;;;;;5076709;28;20402;-80
2022/04/13 14:51:39;;;;;;;2.25;1.65;;;;;;;;;;5060016;28;20409;-79
2022/04/13 14:54:04;;;;;;;4.45;2.28;;;;;;;;;;5094605;28;20090;-79
2022/04/13 14:56:29;;;;;;;3.08;1.80;;;;;;;;;;5076581;28;20027;-80
2022/04/13 14:58:57;;;;;;;4.43;1.70;;;;;;;;;;5062026;28;20024;-79
2022/04/13 15:01:23;;;;;;;3.20;1.70;;;;;;;;;;5085508;28;20032;-79
2022/04/13 15:03:49;;;;;;;2.25;1.40;;;;;;;;;;5094620;28;20126;-79
2022/04/13 15:06:15;;;;;;;1.70;1.48;;;;;;;;;;5094811;28;20039;-79